M V Monarch — ZGBV3 — position and weather

sailwx.info

Track history (hours):
 
Tides and Currents Weather Stations Pressure Air Temp Water Temp Dewpoint Dewpoint Depression Visibility Wind Speed Wind Dir Waves Ship Positions

M V Monarch

Last reported at 2014-Aug-20 14:31 UTC. Time now 2014-Aug-20 14:41 UTC.
Position N 41°00' W 072°18'.

Length 46 m; draft 2.6 m.

Type: Pleasure craft. MMSI: 319927000.

Date/timePositionNaut miles runAvg speedWind from/ knotsBaromVisibWave heightAir tempDewpointWater temp
2014-Aug-20 14:31N 41°00' W 072°18'0 0.0
2014-Aug-20 13:31N 41°00' W 072°18'0 0.0
2014-Aug-20 12:31N 41°00' W 072°18'0 0.0
2014-Aug-20 11:31N 41°00' W 072°18'0 0.0
2014-Aug-20 10:31N 41°00' W 072°18'0 0.0
2014-Aug-20 09:28N 41°00' W 072°18'0 0.0
2014-Aug-20 08:31N 41°00' W 072°18'0 0.0
2014-Aug-20 07:31N 41°00' W 072°18'0 0.0
2014-Aug-20 06:31N 41°00' W 072°18'0 0.0
2014-Aug-20 05:31N 41°00' W 072°18'0 0.0
2014-Aug-20 04:31N 41°00' W 072°18'0 0.0
2014-Aug-20 03:31N 41°00' W 072°18'0 0.0
2014-Aug-20 02:31N 41°00' W 072°18'0 0.0
2014-Aug-20 01:31N 41°00' W 072°18'0 0.0
2014-Aug-20 00:31N 41°00' W 072°18'0 0.0
2014-Aug-19 23:31N 41°00' W 072°18'0 0.0
2014-Aug-19 22:31N 41°00' W 072°18'0 0.0
2014-Aug-19 21:31N 41°00' W 072°18'0 0.0
2014-Aug-19 20:31N 41°00' W 072°18'0 0.0
2014-Aug-19 19:31N 41°00' W 072°18'0 0.0
2014-Aug-19 18:31N 41°00' W 072°18'0 0.0
2014-Aug-19 17:34N 41°00' W 072°18'8 8.0
2014-Aug-19 16:33N 41°03' W 072°08'9 9.0
2014-Aug-19 15:33N 41°04' W 071°56'0 0.2
2014-Aug-19 14:28N 41°04' W 071°56'0 0.0
2014-Aug-19 13:31N 41°04' W 071°56'0 0.0
2014-Aug-19 12:31N 41°04' W 071°56'0 0.0
2014-Aug-19 11:31N 41°04' W 071°56'0 0.0
2014-Aug-19 10:28N 41°04' W 071°56'0 0.0
2014-Aug-19 09:31N 41°04' W 071°56'0 0.0
2014-Aug-19 08:28N 41°04' W 071°56'0 0.0
2014-Aug-19 07:31N 41°04' W 071°56'0 0.0
2014-Aug-19 06:31N 41°04' W 071°56'0 0.0
2014-Aug-19 05:31N 41°04' W 071°56'0 0.0
2014-Aug-19 04:31N 41°04' W 071°56'0 0.0
2014-Aug-19 03:31N 41°04' W 071°56'0 0.0
2014-Aug-19 02:31N 41°04' W 071°56'0 0.0
2014-Aug-19 01:31N 41°04' W 071°56'0 0.0
2014-Aug-19 00:31N 41°04' W 071°56'0 0.0
2014-Aug-18 23:31N 41°04' W 071°56'0 0.0
2014-Aug-18 22:31N 41°04' W 071°56'0 0.0
2014-Aug-18 21:31N 41°04' W 071°56'0 0.0
2014-Aug-18 20:31N 41°04' W 071°56'0 0.0
2014-Aug-18 19:31N 41°04' W 071°56'5 5.1
2014-Aug-18 18:34N 41°08' W 071°52'1110.8
2014-Aug-18 17:33N 41°12' W 071°38'10 9.9
2014-Aug-18 16:33N 41°08' W 071°51'6 6.1
2014-Aug-18 15:34N 41°12' W 071°45'1515.1
2014-Aug-18 14:34N 41°21' W 071°28'1110.6
2014-Aug-18 13:33N 41°29' W 071°20'0 0.0
2014-Aug-18 12:33N 41°29' W 071°20'0 0.0
2014-Aug-18 11:33N 41°29' W 071°20'0 0.0
2014-Aug-18 10:33N 41°29' W 071°20'0 0.0
2014-Aug-18 09:33N 41°29' W 071°20'0 0.0
2014-Aug-18 08:33N 41°29' W 071°20'0 0.0
2014-Aug-18 07:27N 41°29' W 071°20'0 0.0
2014-Aug-18 06:30N 41°29' W 071°20'0 0.0
2014-Aug-18 05:33N 41°29' W 071°20'0 0.0
2014-Aug-18 04:33N 41°29' W 071°20'0 0.0
2014-Aug-18 03:33N 41°29' W 071°20'0 0.0
2014-Aug-18 02:33N 41°29' W 071°20'0 0.0
2014-Aug-18 01:33N 41°29' W 071°20'0 0.0
2014-Aug-18 00:30N 41°29' W 071°20'0 0.0
2014-Aug-17 18:27N 41°29' W 071°20'0 0.0
2014-Aug-17 17:30N 41°29' W 071°20'0 0.0
2014-Aug-17 16:06N 41°29' W 071°20'0 0.0
2014-Aug-17 15:30N 41°29' W 071°20'0 0.0
2014-Aug-17 14:33N 41°29' W 071°20'0 0.0
2014-Aug-17 13:30N 41°29' W 071°20'0 0.0
2014-Aug-17 12:33N 41°29' W 071°20'0 0.0
2014-Aug-17 11:33N 41°29' W 071°20'0 0.0
2014-Aug-17 10:33N 41°29' W 071°20'0 0.0
2014-Aug-17 09:33N 41°29' W 071°20'0 0.0
2014-Aug-17 08:33N 41°29' W 071°20'0 0.0
2014-Aug-17 07:32N 41°29' W 071°20'0 0.0
2014-Aug-17 06:29N 41°29' W 071°20'0 0.0
2014-Aug-17 05:30N 41°29' W 071°20'0 0.0
2014-Aug-17 04:33N 41°29' W 071°20'0 0.0
2014-Aug-17 03:33N 41°29' W 071°20'0 0.0
2014-Aug-17 02:32N 41°29' W 071°20'0 0.0
2014-Aug-17 01:30N 41°29' W 071°20'0 0.0
2014-Aug-17 00:29N 41°29' W 071°20'0 0.0
2014-Aug-16 23:33N 41°29' W 071°20'0 0.0
2014-Aug-16 22:32N 41°29' W 071°20'0 0.0
2014-Aug-16 21:23N 41°29' W 071°20'0 0.0
2014-Aug-16 20:29N 41°29' W 071°20'0 0.0
2014-Aug-16 19:29N 41°29' W 071°20'0 0.0
2014-Aug-16 18:29N 41°29' W 071°20'0 0.0
2014-Aug-16 17:32N 41°29' W 071°20'0 0.0
2014-Aug-16 16:33N 41°29' W 071°20'0 0.0
2014-Aug-16 15:32N 41°29' W 071°20'0 0.0
2014-Aug-16 14:32N 41°29' W 071°20'0 0.0
2014-Aug-16 13:29N 41°29' W 071°20'0 0.0
2014-Aug-16 12:29N 41°29' W 071°20'0 0.0
2014-Aug-16 11:29N 41°29' W 071°20'0 0.0
2014-Aug-16 10:29N 41°29' W 071°20'0 0.0
2014-Aug-16 09:32N 41°29' W 071°20'0 0.0
2014-Aug-16 08:32N 41°29' W 071°20'0 0.0
2014-Aug-16 07:32N 41°29' W 071°20'0 0.0
2014-Aug-16 06:29N 41°29' W 071°20'0 0.0
2014-Aug-16 05:32N 41°29' W 071°20'0 0.0
2014-Aug-16 04:32N 41°29' W 071°20'0 0.0
2014-Aug-16 03:32N 41°29' W 071°20'0 0.0
2014-Aug-16 02:32N 41°29' W 071°20'0 0.0
2014-Aug-16 01:23N 41°29' W 071°20'0 0.0
2014-Aug-16 00:29N 41°29' W 071°20'0 0.0
2014-Aug-15 23:29N 41°29' W 071°20'0 0.0
2014-Aug-15 22:29N 41°29' W 071°20'0 0.0
2014-Aug-15 21:29N 41°29' W 071°20'0 0.0
2014-Aug-15 20:29N 41°29' W 071°20'0 0.0
2014-Aug-15 19:32N 41°29' W 071°20'0 0.0
2014-Aug-15 18:29N 41°29' W 071°20'0 0.0
2014-Aug-15 17:20N 41°29' W 071°20'0 0.0
2014-Aug-15 16:29N 41°29' W 071°20'0 0.0
2014-Aug-15 15:29N 41°29' W 071°20'0 0.0
2014-Aug-15 14:29N 41°29' W 071°20'0 0.0
2014-Aug-15 13:23N 41°29' W 071°20'0 0.0
2014-Aug-15 12:29N 41°29' W 071°20'0 0.0
2014-Aug-15 11:32N 41°29' W 071°20'0 0.0
2014-Aug-15 10:32N 41°29' W 071°20'0 0.0
2014-Aug-15 09:32N 41°29' W 071°20'0 0.0
2014-Aug-15 08:29N 41°29' W 071°20'0 0.0
2014-Aug-15 07:32N 41°29' W 071°20'0 0.0
2014-Aug-15 06:29N 41°29' W 071°20'0 0.0
2014-Aug-15 05:32N 41°29' W 071°20'0 0.0
2014-Aug-15 04:32N 41°29' W 071°20'0 0.0
2014-Aug-15 03:32N 41°29' W 071°20'0 0.0
2014-Aug-15 02:29N 41°29' W 071°20'0 0.0
2014-Aug-15 01:32N 41°29' W 071°20'0 0.0
2014-Aug-15 00:32N 41°29' W 071°20'0 0.0
2014-Aug-14 23:32N 41°29' W 071°20'0 0.0
2014-Aug-14 22:29N 41°29' W 071°20'0 0.0
2014-Aug-14 21:32N 41°29' W 071°20'0 0.0
2014-Aug-14 20:29N 41°29' W 071°20'0 0.0
2014-Aug-14 19:32N 41°29' W 071°20'0 0.0
2014-Aug-14 18:29N 41°29' W 071°20'0 0.0
2014-Aug-14 17:23N 41°29' W 071°20'0 0.0
2014-Aug-14 16:29N 41°29' W 071°20'0 0.0
2014-Aug-14 15:32N 41°29' W 071°20'0 0.0
2014-Aug-14 14:32N 41°29' W 071°20'0 0.0
2014-Aug-14 13:29N 41°29' W 071°20'0 0.0
2014-Aug-14 12:32N 41°29' W 071°20'0 0.0
2014-Aug-14 11:32N 41°29' W 071°20'0 0.0
2014-Aug-14 10:32N 41°29' W 071°20'0 0.0
2014-Aug-14 09:32N 41°29' W 071°20'0 0.0
2014-Aug-14 08:32N 41°29' W 071°20'0 0.0
2014-Aug-14 07:32N 41°29' W 071°20'0 0.0
2014-Aug-14 06:32N 41°29' W 071°20'0 0.0
2014-Aug-14 05:29N 41°29' W 071°20'0 0.0
2014-Aug-14 04:29N 41°29' W 071°20'0 0.0
2014-Aug-14 03:32N 41°29' W 071°20'0 0.0
2014-Aug-14 02:32N 41°29' W 071°20'0 0.0
2014-Aug-14 01:23N 41°29' W 071°20'0 0.0
2014-Aug-14 00:32N 41°29' W 071°20'0 0.0
2014-Aug-13 23:29N 41°29' W 071°20'0 0.0
2014-Aug-13 22:32N 41°29' W 071°20'0 0.0
2014-Aug-13 21:29N 41°29' W 071°20'0 0.0
2014-Aug-13 17:29N 41°29' W 071°20'0 0.0
2014-Aug-13 16:29N 41°29' W 071°20'0 0.0
2014-Aug-13 15:29N 41°29' W 071°20'0 0.0
2014-Aug-13 14:29N 41°29' W 071°20'0 0.0
2014-Aug-13 13:29N 41°29' W 071°20'0 0.0
2014-Aug-13 12:32N 41°29' W 071°20'0 0.0
2014-Aug-13 11:11N 41°29' W 071°20'0 0.0
2014-Aug-13 10:29N 41°29' W 071°20'0 0.0
2014-Aug-13 09:20N 41°29' W 071°20'0 0.0
2014-Aug-13 08:17N 41°29' W 071°20'0 0.0
2014-Aug-13 07:23N 41°29' W 071°20'0 0.0
2014-Aug-13 06:32N 41°29' W 071°20'0 0.0
2014-Aug-13 05:29N 41°29' W 071°20'0 0.0
2014-Aug-13 04:32N 41°29' W 071°20'0 0.0
2014-Aug-13 03:29N 41°29' W 071°20'0 0.0
2014-Aug-13 02:29N 41°29' W 071°20'0 0.0
2014-Aug-13 01:29N 41°29' W 071°20'0 0.0
2014-Aug-13 00:29N 41°29' W 071°20'0 0.0
2014-Aug-12 23:32N 41°29' W 071°20'0 0.0
2014-Aug-12 22:29N 41°29' W 071°20'0 0.0
2014-Aug-12 21:23N 41°29' W 071°20'0 0.0
2014-Aug-12 20:32N 41°29' W 071°20'0 0.0
2014-Aug-12 19:32N 41°29' W 071°20'0 0.0
2014-Aug-12 18:29N 41°29' W 071°20'0 0.0
2014-Aug-12 17:32N 41°29' W 071°20'0 0.0
2014-Aug-12 16:29N 41°29' W 071°20'0 0.0
2014-Aug-12 15:29N 41°29' W 071°20'0 0.0
2014-Aug-12 14:29N 41°29' W 071°20'0 0.0
2014-Aug-12 13:23N 41°29' W 071°20'0 0.0
2014-Aug-12 12:32N 41°29' W 071°20'0 0.0
2014-Aug-12 11:32N 41°29' W 071°20'0 0.0
2014-Aug-12 10:29N 41°29' W 071°20'0 0.0
2014-Aug-12 09:32N 41°29' W 071°20'0 0.0
2014-Aug-12 08:32N 41°29' W 071°20'0 0.0
2014-Aug-12 07:32N 41°29' W 071°20'0 0.0
2014-Aug-12 06:32N 41°29' W 071°20'0 0.0
2014-Aug-12 05:29N 41°29' W 071°20'0 0.0
2014-Aug-12 04:32N 41°29' W 071°20'0 0.0
2014-Aug-12 03:32N 41°29' W 071°20'0 0.0
2014-Aug-12 02:32N 41°29' W 071°20'0 0.0
2014-Aug-12 01:32N 41°29' W 071°20'0 0.0
2014-Aug-12 00:32N 41°29' W 071°20'0 0.0
2014-Aug-11 23:32N 41°29' W 071°20'0 0.0
2014-Aug-11 22:32N 41°29' W 071°20'0 0.0
2014-Aug-11 21:32N 41°29' W 071°20'0 0.0
2014-Aug-11 20:32N 41°29' W 071°20'0 0.0
2014-Aug-11 19:32N 41°29' W 071°20'0 0.0
2014-Aug-11 18:26N 41°29' W 071°20'0 0.0
2014-Aug-11 17:32N 41°29' W 071°20'0 0.0
2014-Aug-11 16:32N 41°29' W 071°20'0 0.0
2014-Aug-11 15:29N 41°29' W 071°20'0 0.0
2014-Aug-11 14:32N 41°29' W 071°20'0 0.0
2014-Aug-11 13:29N 41°29' W 071°20'0 0.0
2014-Aug-11 12:32N 41°29' W 071°20'0 0.0
2014-Aug-11 11:32N 41°29' W 071°20'0 0.0
2014-Aug-11 10:26N 41°29' W 071°20'0 0.0
2014-Aug-11 09:32N 41°29' W 071°20'0 0.0
2014-Aug-11 08:32N 41°29' W 071°20'0 0.0
2014-Aug-11 07:26N 41°29' W 071°20'0 0.0
2014-Aug-11 06:29N 41°29' W 071°20'0 0.0
2014-Aug-11 05:32N 41°29' W 071°20'0 0.0
2014-Aug-11 04:32N 41°29' W 071°20'0 0.0
2014-Aug-11 03:29N 41°29' W 071°20'0 0.0
2014-Aug-11 02:32N 41°29' W 071°20'0 0.0
2014-Aug-11 01:32N 41°29' W 071°20'0 0.0
2014-Aug-11 00:32N 41°29' W 071°20'0 0.0
2014-Aug-10 23:32N 41°29' W 071°20'0 0.0
2014-Aug-10 22:32N 41°29' W 071°20'0 0.0
2014-Aug-10 21:29N 41°29' W 071°20'0 0.0
2014-Aug-10 20:32N 41°29' W 071°20'0 0.0
2014-Aug-10 19:29N 41°29' W 071°20'0 0.0
2014-Aug-10 18:29N 41°29' W 071°20'0 0.0
2014-Aug-10 17:32N 41°29' W 071°20'0 0.0
2014-Aug-10 16:29N 41°29' W 071°20'0 0.0
2014-Aug-10 15:29N 41°29' W 071°20'  
Track history (hours):
 
Tides and Currents Weather Stations Pressure Air Temp Water Temp Dewpoint Dewpoint Depression Visibility Wind Speed Wind Dir Waves Ship Positions

M V Monarch

Last reported at 2014-Aug-20 14:31 UTC. Time now 2014-Aug-20 14:41 UTC.
Position N 41°00' W 072°18'.

Length 46 m; draft 2.6 m.

Type: Pleasure craft. MMSI: 319927000.

Date/timePositionNaut miles runAvg speedWind from/ knotsBaromVisibWave heightAir tempDewpointWater temp
2014-Aug-20 14:31N 41°00' W 072°18'0 0.0
2014-Aug-20 13:31N 41°00' W 072°18'0 0.0
2014-Aug-20 12:31N 41°00' W 072°18'0 0.0
2014-Aug-20 11:31N 41°00' W 072°18'0 0.0
2014-Aug-20 10:31N 41°00' W 072°18'0 0.0
2014-Aug-20 09:28N 41°00' W 072°18'0 0.0
2014-Aug-20 08:31N 41°00' W 072°18'0 0.0
2014-Aug-20 07:31N 41°00' W 072°18'0 0.0
2014-Aug-20 06:31N 41°00' W 072°18'0 0.0
2014-Aug-20 05:31N 41°00' W 072°18'0 0.0
2014-Aug-20 04:31N 41°00' W 072°18'0 0.0
2014-Aug-20 03:31N 41°00' W 072°18'0 0.0
2014-Aug-20 02:31N 41°00' W 072°18'0 0.0
2014-Aug-20 01:31N 41°00' W 072°18'0 0.0
2014-Aug-20 00:31N 41°00' W 072°18'0 0.0
2014-Aug-19 23:31N 41°00' W 072°18'0 0.0
2014-Aug-19 22:31N 41°00' W 072°18'0 0.0
2014-Aug-19 21:31N 41°00' W 072°18'0 0.0
2014-Aug-19 20:31N 41°00' W 072°18'0 0.0
2014-Aug-19 19:31N 41°00' W 072°18'0 0.0
2014-Aug-19 18:31N 41°00' W 072°18'0 0.0
2014-Aug-19 17:34N 41°00' W 072°18'8 8.0
2014-Aug-19 16:33N 41°03' W 072°08'9 9.0
2014-Aug-19 15:33N 41°04' W 071°56'0 0.2
2014-Aug-19 14:28N 41°04' W 071°56'0 0.0
2014-Aug-19 13:31N 41°04' W 071°56'0 0.0
2014-Aug-19 12:31N 41°04' W 071°56'0 0.0
2014-Aug-19 11:31N 41°04' W 071°56'0 0.0
2014-Aug-19 10:28N 41°04' W 071°56'0 0.0
2014-Aug-19 09:31N 41°04' W 071°56'0 0.0
2014-Aug-19 08:28N 41°04' W 071°56'0 0.0
2014-Aug-19 07:31N 41°04' W 071°56'0 0.0
2014-Aug-19 06:31N 41°04' W 071°56'0 0.0
2014-Aug-19 05:31N 41°04' W 071°56'0 0.0
2014-Aug-19 04:31N 41°04' W 071°56'0 0.0
2014-Aug-19 03:31N 41°04' W 071°56'0 0.0
2014-Aug-19 02:31N 41°04' W 071°56'0 0.0
2014-Aug-19 01:31N 41°04' W 071°56'0 0.0
2014-Aug-19 00:31N 41°04' W 071°56'0 0.0
2014-Aug-18 23:31N 41°04' W 071°56'0 0.0
2014-Aug-18 22:31N 41°04' W 071°56'0 0.0
2014-Aug-18 21:31N 41°04' W 071°56'0 0.0
2014-Aug-18 20:31N 41°04' W 071°56'0 0.0
2014-Aug-18 19:31N 41°04' W 071°56'5 5.1
2014-Aug-18 18:34N 41°08' W 071°52'1110.8
2014-Aug-18 17:33N 41°12' W 071°38'10 9.9
2014-Aug-18 16:33N 41°08' W 071°51'6 6.1
2014-Aug-18 15:34N 41°12' W 071°45'1515.1
2014-Aug-18 14:34N 41°21' W 071°28'1110.6
2014-Aug-18 13:33N 41°29' W 071°20'0 0.0
2014-Aug-18 12:33N 41°29' W 071°20'0 0.0
2014-Aug-18 11:33N 41°29' W 071°20'0 0.0
2014-Aug-18 10:33N 41°29' W 071°20'0 0.0
2014-Aug-18 09:33N 41°29' W 071°20'0 0.0
2014-Aug-18 08:33N 41°29' W 071°20'0 0.0
2014-Aug-18 07:27N 41°29' W 071°20'0 0.0
2014-Aug-18 06:30N 41°29' W 071°20'0 0.0
2014-Aug-18 05:33N 41°29' W 071°20'0 0.0
2014-Aug-18 04:33N 41°29' W 071°20'0 0.0
2014-Aug-18 03:33N 41°29' W 071°20'0 0.0
2014-Aug-18 02:33N 41°29' W 071°20'0 0.0
2014-Aug-18 01:33N 41°29' W 071°20'0 0.0
2014-Aug-18 00:30N 41°29' W 071°20'0 0.0
2014-Aug-17 18:27N 41°29' W 071°20'0 0.0
2014-Aug-17 17:30N 41°29' W 071°20'0 0.0
2014-Aug-17 16:06N 41°29' W 071°20'0 0.0
2014-Aug-17 15:30N 41°29' W 071°20'0 0.0
2014-Aug-17 14:33N 41°29' W 071°20'0 0.0
2014-Aug-17 13:30N 41°29' W 071°20'0 0.0
2014-Aug-17 12:33N 41°29' W 071°20'0 0.0
2014-Aug-17 11:33N 41°29' W 071°20'0 0.0
2014-Aug-17 10:33N 41°29' W 071°20'0 0.0
2014-Aug-17 09:33N 41°29' W 071°20'0 0.0
2014-Aug-17 08:33N 41°29' W 071°20'0 0.0
2014-Aug-17 07:32N 41°29' W 071°20'0 0.0
2014-Aug-17 06:29N 41°29' W 071°20'0 0.0
2014-Aug-17 05:30N 41°29' W 071°20'0 0.0
2014-Aug-17 04:33N 41°29' W 071°20'0 0.0
2014-Aug-17 03:33N 41°29' W 071°20'0 0.0
2014-Aug-17 02:32N 41°29' W 071°20'0 0.0
2014-Aug-17 01:30N 41°29' W 071°20'0 0.0
2014-Aug-17 00:29N 41°29' W 071°20'0 0.0
2014-Aug-16 23:33N 41°29' W 071°20'0 0.0
2014-Aug-16 22:32N 41°29' W 071°20'0 0.0
2014-Aug-16 21:23N 41°29' W 071°20'0 0.0
2014-Aug-16 20:29N 41°29' W 071°20'0 0.0
2014-Aug-16 19:29N 41°29' W 071°20'0 0.0
2014-Aug-16 18:29N 41°29' W 071°20'0 0.0
2014-Aug-16 17:32N 41°29' W 071°20'0 0.0
2014-Aug-16 16:33N 41°29' W 071°20'0 0.0
2014-Aug-16 15:32N 41°29' W 071°20'0 0.0
2014-Aug-16 14:32N 41°29' W 071°20'0 0.0
2014-Aug-16 13:29N 41°29' W 071°20'0 0.0
2014-Aug-16 12:29N 41°29' W 071°20'0 0.0
2014-Aug-16 11:29N 41°29' W 071°20'0 0.0
2014-Aug-16 10:29N 41°29' W 071°20'0 0.0
2014-Aug-16 09:32N 41°29' W 071°20'0 0.0
2014-Aug-16 08:32N 41°29' W 071°20'0 0.0
2014-Aug-16 07:32N 41°29' W 071°20'0 0.0
2014-Aug-16 06:29N 41°29' W 071°20'0 0.0
2014-Aug-16 05:32N 41°29' W 071°20'0 0.0
2014-Aug-16 04:32N 41°29' W 071°20'0 0.0
2014-Aug-16 03:32N 41°29' W 071°20'0 0.0
2014-Aug-16 02:32N 41°29' W 071°20'0 0.0
2014-Aug-16 01:23N 41°29' W 071°20'0 0.0
2014-Aug-16 00:29N 41°29' W 071°20'0 0.0
2014-Aug-15 23:29N 41°29' W 071°20'0 0.0
2014-Aug-15 22:29N 41°29' W 071°20'0 0.0
2014-Aug-15 21:29N 41°29' W 071°20'0 0.0
2014-Aug-15 20:29N 41°29' W 071°20'0 0.0
2014-Aug-15 19:32N 41°29' W 071°20'0 0.0
2014-Aug-15 18:29N 41°29' W 071°20'0 0.0
2014-Aug-15 17:20N 41°29' W 071°20'0 0.0
2014-Aug-15 16:29N 41°29' W 071°20'0 0.0
2014-Aug-15 15:29N 41°29' W 071°20'0 0.0
2014-Aug-15 14:29N 41°29' W 071°20'0 0.0
2014-Aug-15 13:23N 41°29' W 071°20'0 0.0
2014-Aug-15 12:29N 41°29' W 071°20'0 0.0
2014-Aug-15 11:32N 41°29' W 071°20'0 0.0
2014-Aug-15 10:32N 41°29' W 071°20'0 0.0
2014-Aug-15 09:32N 41°29' W 071°20'0 0.0
2014-Aug-15 08:29N 41°29' W 071°20'0 0.0
2014-Aug-15 07:32N 41°29' W 071°20'0 0.0
2014-Aug-15 06:29N 41°29' W 071°20'0 0.0
2014-Aug-15 05:32N 41°29' W 071°20'0 0.0
2014-Aug-15 04:32N 41°29' W 071°20'0 0.0
2014-Aug-15 03:32N 41°29' W 071°20'0 0.0
2014-Aug-15 02:29N 41°29' W 071°20'0 0.0
2014-Aug-15 01:32N 41°29' W 071°20'0 0.0
2014-Aug-15 00:32N 41°29' W 071°20'0 0.0
2014-Aug-14 23:32N 41°29' W 071°20'0 0.0
2014-Aug-14 22:29N 41°29' W 071°20'0 0.0
2014-Aug-14 21:32N 41°29' W 071°20'0 0.0
2014-Aug-14 20:29N 41°29' W 071°20'0 0.0
2014-Aug-14 19:32N 41°29' W 071°20'0 0.0
2014-Aug-14 18:29N 41°29' W 071°20'0 0.0
2014-Aug-14 17:23N 41°29' W 071°20'0 0.0
2014-Aug-14 16:29N 41°29' W 071°20'0 0.0
2014-Aug-14 15:32N 41°29' W 071°20'0 0.0
2014-Aug-14 14:32N 41°29' W 071°20'0 0.0
2014-Aug-14 13:29N 41°29' W 071°20'0 0.0
2014-Aug-14 12:32N 41°29' W 071°20'0 0.0
2014-Aug-14 11:32N 41°29' W 071°20'0 0.0
2014-Aug-14 10:32N 41°29' W 071°20'0 0.0
2014-Aug-14 09:32N 41°29' W 071°20'0 0.0
2014-Aug-14 08:32N 41°29' W 071°20'0 0.0
2014-Aug-14 07:32N 41°29' W 071°20'0 0.0
2014-Aug-14 06:32N 41°29' W 071°20'0 0.0
2014-Aug-14 05:29N 41°29' W 071°20'0 0.0
2014-Aug-14 04:29N 41°29' W 071°20'0 0.0
2014-Aug-14 03:32N 41°29' W 071°20'0 0.0
2014-Aug-14 02:32N 41°29' W 071°20'0 0.0
2014-Aug-14 01:23N 41°29' W 071°20'0 0.0
2014-Aug-14 00:32N 41°29' W 071°20'0 0.0
2014-Aug-13 23:29N 41°29' W 071°20'0 0.0
2014-Aug-13 22:32N 41°29' W 071°20'0 0.0
2014-Aug-13 21:29N 41°29' W 071°20'0 0.0
2014-Aug-13 17:29N 41°29' W 071°20'0 0.0
2014-Aug-13 16:29N 41°29' W 071°20'0 0.0
2014-Aug-13 15:29N 41°29' W 071°20'0 0.0
2014-Aug-13 14:29N 41°29' W 071°20'0 0.0
2014-Aug-13 13:29N 41°29' W 071°20'0 0.0
2014-Aug-13 12:32N 41°29' W 071°20'0 0.0
2014-Aug-13 11:11N 41°29' W 071°20'0 0.0
2014-Aug-13 10:29N 41°29' W 071°20'0 0.0
2014-Aug-13 09:20N 41°29' W 071°20'0 0.0
2014-Aug-13 08:17N 41°29' W 071°20'0 0.0
2014-Aug-13 07:23N 41°29' W 071°20'0 0.0
2014-Aug-13 06:32N 41°29' W 071°20'0 0.0
2014-Aug-13 05:29N 41°29' W 071°20'0 0.0
2014-Aug-13 04:32N 41°29' W 071°20'0 0.0
2014-Aug-13 03:29N 41°29' W 071°20'0 0.0
2014-Aug-13 02:29N 41°29' W 071°20'0 0.0
2014-Aug-13 01:29N 41°29' W 071°20'0 0.0
2014-Aug-13 00:29N 41°29' W 071°20'0 0.0
2014-Aug-12 23:32N 41°29' W 071°20'0 0.0
2014-Aug-12 22:29N 41°29' W 071°20'0 0.0
2014-Aug-12 21:23N 41°29' W 071°20'0 0.0
2014-Aug-12 20:32N 41°29' W 071°20'0 0.0
2014-Aug-12 19:32N 41°29' W 071°20'0 0.0
2014-Aug-12 18:29N 41°29' W 071°20'0 0.0
2014-Aug-12 17:32N 41°29' W 071°20'0 0.0
2014-Aug-12 16:29N 41°29' W 071°20'0 0.0
2014-Aug-12 15:29N 41°29' W 071°20'0 0.0
2014-Aug-12 14:29N 41°29' W 071°20'0 0.0
2014-Aug-12 13:23N 41°29' W 071°20'0 0.0
2014-Aug-12 12:32N 41°29' W 071°20'0 0.0
2014-Aug-12 11:32N 41°29' W 071°20'0 0.0
2014-Aug-12 10:29N 41°29' W 071°20'0 0.0
2014-Aug-12 09:32N 41°29' W 071°20'0 0.0
2014-Aug-12 08:32N 41°29' W 071°20'0 0.0
2014-Aug-12 07:32N 41°29' W 071°20'0 0.0
2014-Aug-12 06:32N 41°29' W 071°20'0 0.0
2014-Aug-12 05:29N 41°29' W 071°20'0 0.0
2014-Aug-12 04:32N 41°29' W 071°20'0 0.0
2014-Aug-12 03:32N 41°29' W 071°20'0 0.0
2014-Aug-12 02:32N 41°29' W 071°20'0 0.0
2014-Aug-12 01:32N 41°29' W 071°20'0 0.0
2014-Aug-12 00:32N 41°29' W 071°20'0 0.0
2014-Aug-11 23:32N 41°29' W 071°20'0 0.0
2014-Aug-11 22:32N 41°29' W 071°20'0 0.0
2014-Aug-11 21:32N 41°29' W 071°20'0 0.0
2014-Aug-11 20:32N 41°29' W 071°20'0 0.0
2014-Aug-11 19:32N 41°29' W 071°20'0 0.0
2014-Aug-11 18:26N 41°29' W 071°20'0 0.0
2014-Aug-11 17:32N 41°29' W 071°20'0 0.0
2014-Aug-11 16:32N 41°29' W 071°20'0 0.0
2014-Aug-11 15:29N 41°29' W 071°20'0 0.0
2014-Aug-11 14:32N 41°29' W 071°20'0 0.0
2014-Aug-11 13:29N 41°29' W 071°20'0 0.0
2014-Aug-11 12:32N 41°29' W 071°20'0 0.0
2014-Aug-11 11:32N 41°29' W 071°20'0 0.0
2014-Aug-11 10:26N 41°29' W 071°20'0 0.0
2014-Aug-11 09:32N 41°29' W 071°20'0 0.0
2014-Aug-11 08:32N 41°29' W 071°20'0 0.0
2014-Aug-11 07:26N 41°29' W 071°20'0 0.0
2014-Aug-11 06:29N 41°29' W 071°20'0 0.0
2014-Aug-11 05:32N 41°29' W 071°20'0 0.0
2014-Aug-11 04:32N 41°29' W 071°20'0 0.0
2014-Aug-11 03:29N 41°29' W 071°20'0 0.0
2014-Aug-11 02:32N 41°29' W 071°20'0 0.0
2014-Aug-11 01:32N 41°29' W 071°20'0 0.0
2014-Aug-11 00:32N 41°29' W 071°20'0 0.0
2014-Aug-10 23:32N 41°29' W 071°20'0 0.0
2014-Aug-10 22:32N 41°29' W 071°20'0 0.0
2014-Aug-10 21:29N 41°29' W 071°20'0 0.0
2014-Aug-10 20:32N 41°29' W 071°20'0 0.0
2014-Aug-10 19:29N 41°29' W 071°20'0 0.0
2014-Aug-10 18:29N 41°29' W 071°20'0 0.0
2014-Aug-10 17:32N 41°29' W 071°20'0 0.0
2014-Aug-10 16:29N 41°29' W 071°20'0 0.0
2014-Aug-10 15:29N 41°29' W 071°20'  

Dump ship's entire track history